Time;durP1;ratioP1;P1;durP2;ratioP2;P2;SDS_P1;SDS_P2;PMS_P1;PMS_P2;Temp;Humidity;BMP_temperature;BMP_pressure;BME280_temperature;BME280_humidity;BME280_pressure;Samples;Min_cycle;Max_cycle;Signal;HPM_P1;HPM_P2
2022/01/13 00:00:48;;;;;;;50.65;19.83;;;2.80;99.90;;;;;;4942108;28;20049;-85
2022/01/13 00:03:13;;;;;;;45.25;20.17;;;2.90;99.90;;;;;;4907045;28;20496;-85
2022/01/13 00:05:39;;;;;;;44.08;15.88;;;2.90;99.90;;;;;;4927901;28;20045;-85
2022/01/13 00:08:05;;;;;;;44.95;17.10;;;2.90;99.90;;;;;;4942190;28;20039;-85
2022/01/13 00:10:30;;;;;;;53.33;21.17;;;2.80;99.90;;;;;;4932831;28;20043;-85
2022/01/13 00:13:02;;;;;;;53.95;22.08;;;2.80;99.90;;;;;;4936745;28;20034;-85
2022/01/13 00:16:01;;;;;;;56.20;23.13;;;2.80;99.90;;;;;;4931316;28;20062;-85
2022/01/13 00:18:38;;;;;;;51.38;20.23;;;2.70;99.90;;;;;;4944584;28;20069;-84
2022/01/13 00:21:30;;;;;;;50.40;20.50;;;2.80;99.90;;;;;;4917489;28;20050;-85
2022/01/13 00:23:59;;;;;;;58.72;21.90;;;2.90;99.90;;;;;;4925368;28;20024;-85
2022/01/13 00:26:27;;;;;;;65.13;25.48;;;2.80;99.90;;;;;;4947989;28;20023;-85
2022/01/13 00:28:53;;;;;;;47.50;19.45;;;2.70;99.90;;;;;;4947073;28;20047;-85
2022/01/13 00:31:26;;;;;;;14.55;5.38;;;2.80;99.90;;;;;;4926978;28;21658;-85
2022/01/13 00:33:54;;;;;;;18.92;9.13;;;2.80;99.90;;;;;;4939520;28;20042;-84
2022/01/13 00:36:21;;;;;;;70.40;25.20;;;2.80;99.90;;;;;;4942789;28;20463;-84
2022/01/13 00:38:47;;;;;;;60.60;23.80;;;2.70;99.90;;;;;;4933752;28;20035;-85
2022/01/13 00:41:12;;;;;;;70.80;26.13;;;2.70;99.90;;;;;;4964655;28;20027;-84
2022/01/13 00:43:40;;;;;;;60.65;21.75;;;2.70;99.90;;;;;;4932453;28;20134;-85
2022/01/13 00:46:06;;;;;;;67.63;23.73;;;2.70;99.90;;;;;;4950718;28;20030;-85
2022/01/13 00:48:32;;;;;;;74.55;28.20;;;2.80;99.90;;;;;;4928347;28;20035;-85
2022/01/13 00:50:57;;;;;;;69.22;22.70;;;2.70;99.90;;;;;;4933500;28;20039;-85
2022/01/13 00:53:23;;;;;;;58.20;22.85;;;2.70;99.90;;;;;;4926203;28;20057;-85
2022/01/13 00:55:58;;;;;;;56.78;19.55;;;2.80;99.90;;;;;;4918577;28;20138;-85
2022/01/13 00:58:24;;;;;;;63.92;22.13;;;2.70;99.90;;;;;;4942538;28;20645;-84
2022/01/13 01:00:50;;;;;;;35.92;15.02;;;2.80;99.90;;;;;;4931098;28;20214;-84
2022/01/13 01:03:15;;;;;;;53.15;19.42;;;2.70;99.90;;;;;;4916442;28;20038;-84
2022/01/13 01:05:41;;;;;;;44.50;13.63;;;2.70;99.90;;;;;;4938776;28;20043;-84
2022/01/13 01:08:07;;;;;;;67.82;22.65;;;2.70;99.90;;;;;;4941092;28;20031;-85
2022/01/13 01:10:33;;;;;;;64.35;26.20;;;2.70;99.90;;;;;;4945068;28;20031;-85
2022/01/13 01:12:58;;;;;;;69.97;25.48;;;2.70;99.90;;;;;;4935180;28;20622;-85
2022/01/13 01:15:25;;;;;;;56.25;21.98;;;2.70;99.90;;;;;;4947661;28;20030;-85
2022/01/13 01:17:57;;;;;;;72.78;27.20;;;2.70;99.90;;;;;;4941267;28;20038;-84
2022/01/13 01:20:29;;;;;;;57.55;21.50;;;2.70;99.90;;;;;;4928739;28;20066;-84
2022/01/13 01:23:02;;;;;;;59.90;21.73;;;2.70;99.90;;;;;;4942054;28;20031;-85
2022/01/13 01:27:56;;;;;;;45.75;16.25;;;2.70;99.90;;;;;;4956711;28;20035;-84
2022/01/13 01:30:38;;;;;;;69.43;24.42;;;2.70;99.90;;;;;;4927719;28;20036;-84
2022/01/13 01:33:03;;;;;;;74.07;26.15;;;2.60;99.90;;;;;;4921955;28;20082;-84
2022/01/13 01:35:29;;;;;;;58.20;23.98;;;2.60;99.90;;;;;;4934047;28;20053;-85
2022/01/13 01:37:55;;;;;;;58.90;23.20;;;2.60;99.90;;;;;;4947527;28;20019;-85
2022/01/13 01:40:20;;;;;;;63.65;23.15;;;2.60;99.90;;;;;;4913464;28;20033;-85
2022/01/13 01:42:47;;;;;;;53.30;17.27;;;2.60;99.90;;;;;;4908004;28;20034;-84
2022/01/13 01:45:13;;;;;;;38.05;13.60;;;2.60;99.90;;;;;;4918615;28;20114;-84
2022/01/13 01:47:39;;;;;;;67.35;26.10;;;2.60;99.90;;;;;;4942760;28;20034;-85
2022/01/13 01:50:18;;;;;;;74.32;28.40;;;2.70;99.90;;;;;;4930755;28;20035;-84
2022/01/13 01:52:50;;;;;;;72.53;26.45;;;2.60;99.90;;;;;;4925206;28;20041;-85
2022/01/13 01:55:16;;;;;;;62.50;23.02;;;2.70;99.90;;;;;;4935064;28;20027;-84
2022/01/13 01:57:43;;;;;;;66.40;24.55;;;2.70;99.90;;;;;;4925818;28;20874;-85
2022/01/13 02:00:10;;;;;;;62.50;25.10;;;2.70;99.90;;;;;;4929943;28;20918;-85
2022/01/13 02:02:36;;;;;;;54.00;18.33;;;2.60;99.90;;;;;;4934534;28;20065;-85
2022/01/13 02:05:02;;;;;;;78.28;26.13;;;2.50;99.90;;;;;;4940717;28;20054;-85
2022/01/13 02:07:28;;;;;;;62.40;23.40;;;2.50;99.90;;;;;;4942342;28;20054;-85
2022/01/13 02:09:56;;;;;;;72.00;27.15;;;2.60;99.90;;;;;;4930152;28;20093;-84
2022/01/13 02:17:39;;;;;;;68.85;25.33;;;2.60;99.90;;;;;;4943172;28;20218;-85
2022/01/13 02:20:05;;;;;;;65.53;25.90;;;2.70;99.90;;;;;;4931848;28;20428;-85
2022/01/13 02:22:31;;;;;;;46.72;17.65;;;2.70;99.90;;;;;;4929639;28;20075;-85
2022/01/13 02:24:56;;;;;;;61.30;22.45;;;2.60;99.90;;;;;;4939659;28;20039;-85
2022/01/13 02:27:22;;;;;;;56.05;18.90;;;2.60;99.90;;;;;;4916167;28;20046;-85
2022/01/13 02:29:48;;;;;;;63.22;22.67;;;2.60;99.90;;;;;;4940880;28;20037;-85
2022/01/13 02:32:14;;;;;;;61.00;22.63;;;2.70;99.90;;;;;;4921146;28;20054;-85
2022/01/13 02:34:39;;;;;;;67.60;26.40;;;2.60;99.90;;;;;;4936433;28;20171;-85
2022/01/13 02:37:05;;;;;;;68.45;25.40;;;2.70;99.90;;;;;;4945735;28;20027;-85
2022/01/13 02:39:31;;;;;;;69.25;23.75;;;2.70;99.90;;;;;;4915644;28;20191;-85
2022/01/13 02:41:58;;;;;;;56.78;20.95;;;2.70;99.90;;;;;;4929950;28;20042;-85
2022/01/13 02:44:24;;;;;;;59.40;23.42;;;2.70;99.90;;;;;;4914557;28;20518;-85
2022/01/13 02:49:23;;;;;;;38.08;14.75;;;2.60;99.90;;;;;;4955137;28;20933;-84
2022/01/13 02:51:50;;;;;;;63.83;22.67;;;2.60;99.90;;;;;;4935969;28;20040;-84
2022/01/13 02:54:16;;;;;;;69.35;23.85;;;2.60;99.90;;;;;;4932661;28;20427;-85
2022/01/13 02:56:43;;;;;;;58.17;19.38;;;2.60;99.90;;;;;;4928039;28;20038;-86
2022/01/13 02:59:09;;;;;;;68.03;26.65;;;2.60;99.90;;;;;;4929667;28;20031;-85
2022/01/13 03:01:43;;;;;;;77.40;28.55;;;2.70;99.90;;;;;;4956614;28;20098;-85
2022/01/13 03:04:09;;;;;;;73.28;29.77;;;2.70;99.90;;;;;;4933734;28;20069;-85
2022/01/13 03:06:37;;;;;;;65.07;22.33;;;2.70;99.90;;;;;;4929640;28;20102;-85
2022/01/13 03:09:04;;;;;;;72.15;28.40;;;2.60;99.90;;;;;;4924302;28;20039;-85
2022/01/13 03:11:34;;;;;;;76.28;29.90;;;2.60;99.90;;;;;;4914455;28;20578;-85
2022/01/13 03:13:59;;;;;;;94.93;31.83;;;2.60;99.90;;;;;;4928061;28;20035;-85
2022/01/13 03:16:25;;;;;;;76.97;26.42;;;2.60;99.90;;;;;;4915939;28;20395;-85
2022/01/13 03:18:51;;;;;;;81.00;30.33;;;2.60;99.90;;;;;;4931741;28;20054;-85
2022/01/13 03:21:17;;;;;;;78.78;27.25;;;2.70;99.90;;;;;;4935367;28;20107;-85
2022/01/13 03:23:43;;;;;;;85.75;32.13;;;2.60;99.90;;;;;;4926347;28;20058;-85
2022/01/13 03:26:08;;;;;;;77.88;28.92;;;2.80;99.90;;;;;;4942976;28;20039;-85
2022/01/13 03:28:51;;;;;;;79.55;26.83;;;2.70;99.90;;;;;;4921084;28;20046;-85
2022/01/13 03:31:20;;;;;;;71.45;29.23;;;2.70;99.90;;;;;;4953740;28;20066;-84
2022/01/13 03:33:45;;;;;;;95.13;36.63;;;2.60;99.90;;;;;;4935996;28;20043;-85
2022/01/13 03:36:11;;;;;;;73.00;25.90;;;2.60;99.90;;;;;;4933050;28;20031;-85
2022/01/13 03:38:36;;;;;;;83.32;33.03;;;2.60;99.90;;;;;;4944310;28;20607;-84
2022/01/13 03:41:02;;;;;;;80.70;27.52;;;2.60;99.90;;;;;;4930921;28;20042;-85
2022/01/13 03:43:28;;;;;;;72.72;27.45;;;2.60;99.90;;;;;;4935534;28;20040;-85
2022/01/13 03:45:54;;;;;;;72.15;28.88;;;2.60;99.90;;;;;;4921054;28;20178;-85
2022/01/13 03:48:19;;;;;;;85.93;34.53;;;2.60;99.90;;;;;;4943363;28;20043;-85
2022/01/13 03:50:45;;;;;;;93.43;34.88;;;2.60;99.90;;;;;;4931685;28;20050;-85
2022/01/13 03:53:13;;;;;;;82.35;34.88;;;2.50;99.90;;;;;;4935456;28;20027;-85
2022/01/13 03:55:54;;;;;;;77.72;29.02;;;2.50;99.90;;;;;;4944983;28;20123;-85
2022/01/13 03:58:44;;;;;;;74.80;31.25;;;2.50;99.90;;;;;;4960457;28;20114;-85
2022/01/13 04:01:42;;;;;;;72.93;26.05;;;2.60;99.90;;;;;;4960827;28;20689;-85
2022/01/13 04:04:07;;;;;;;65.28;27.00;;;2.60;99.90;;;;;;4944008;28;20035;-85
2022/01/13 04:06:33;;;;;;;73.00;27.30;;;2.60;99.90;;;;;;4949587;28;20550;-85
2022/01/13 04:08:58;;;;;;;23.02;9.10;;;2.60;99.90;;;;;;4946819;28;20039;-85
2022/01/13 04:11:28;;;;;;;63.75;26.42;;;2.60;99.90;;;;;;4928873;28;20035;-85
2022/01/13 04:14:00;;;;;;;46.50;16.20;;;2.60;99.90;;;;;;4925704;28;20114;-85
2022/01/13 04:16:27;;;;;;;81.65;31.45;;;2.60;99.90;;;;;;4945714;28;20030;-85
2022/01/13 04:18:55;;;;;;;72.22;26.98;;;2.60;99.90;;;;;;4944851;28;20039;-85
2022/01/13 04:21:21;;;;;;;61.05;25.10;;;2.60;99.90;;;;;;4931963;28;20496;-85
2022/01/13 04:23:47;;;;;;;79.53;31.88;;;2.50;99.90;;;;;;4943291;28;20039;-85
2022/01/13 04:26:21;;;;;;;75.25;30.20;;;2.60;99.90;;;;;;4934439;28;20611;-85
2022/01/13 04:28:49;;;;;;;70.15;27.63;;;2.60;99.90;;;;;;4931337;28;20085;-84
2022/01/13 04:31:14;;;;;;;77.45;29.73;;;2.50;99.90;;;;;;4921319;28;20118;-85
2022/01/13 04:33:40;;;;;;;79.22;30.13;;;2.50;99.90;;;;;;4915686;28;20185;-85
2022/01/13 04:36:06;;;;;;;77.28;30.20;;;2.50;99.90;;;;;;4947031;28;20035;-85
2022/01/13 04:38:32;;;;;;;96.50;37.75;;;2.60;99.90;;;;;;4959635;28;20063;-85
2022/01/13 04:41:02;;;;;;;89.45;33.58;;;2.60;99.90;;;;;;4941346;28;20059;-85
2022/01/13 04:43:31;;;;;;;83.70;28.45;;;2.50;99.90;;;;;;4930817;28;20039;-85
2022/01/13 04:45:56;;;;;;;79.57;30.75;;;2.50;99.90;;;;;;4942772;28;20038;-85
2022/01/13 04:48:22;;;;;;;65.32;25.02;;;2.50;99.90;;;;;;4931355;28;20726;-85
2022/01/13 04:50:47;;;;;;;38.22;14.88;;;2.50;99.90;;;;;;4932049;28;20036;-85
2022/01/13 04:53:13;;;;;;;64.07;23.55;;;2.50;99.90;;;;;;4929139;28;20023;-85
2022/01/13 04:55:39;;;;;;;43.90;14.07;;;2.50;99.90;;;;;;4930953;28;20421;-85
2022/01/13 04:58:05;;;;;;;85.43;32.17;;;2.50;99.90;;;;;;4958211;28;20094;-85
2022/01/13 05:00:31;;;;;;;52.65;18.50;;;2.40;99.90;;;;;;4931224;28;20514;-85
2022/01/13 05:02:57;;;;;;;43.67;16.73;;;2.50;99.90;;;;;;4934465;28;20551;-85
2022/01/13 05:05:23;;;;;;;34.58;15.93;;;2.50;99.90;;;;;;4932771;28;20031;-85
2022/01/13 05:07:49;;;;;;;43.08;17.67;;;2.60;99.90;;;;;;4943805;28;20035;-85
2022/01/13 05:10:15;;;;;;;58.38;21.58;;;2.40;99.90;;;;;;4943982;28;20635;-85
2022/01/13 05:12:45;;;;;;;79.30;28.90;;;2.50;99.90;;;;;;4932709;28;20122;-85
2022/01/13 05:15:16;;;;;;;70.68;27.23;;;2.40;99.90;;;;;;4933533;28;20114;-85
2022/01/13 05:18:07;;;;;;;52.38;20.42;;;2.50;99.90;;;;;;4916262;28;20038;-85
2022/01/13 05:20:46;;;;;;;65.97;22.42;;;2.50;99.90;;;;;;4942028;28;20054;-85
2022/01/13 05:23:12;;;;;;;56.85;20.23;;;2.30;99.90;;;;;;4933866;28;20043;-85
2022/01/13 05:25:38;;;;;;;69.10;25.83;;;2.40;99.90;;;;;;4930944;28;20031;-85
2022/01/13 05:28:04;;;;;;;56.53;20.95;;;2.40;99.90;;;;;;4932477;28;20038;-85
2022/01/13 05:30:30;;;;;;;69.35;28.15;;;2.40;99.90;;;;;;4930554;28;20109;-85
2022/01/13 05:32:56;;;;;;;45.30;18.63;;;2.40;99.90;;;;;;4933879;28;20031;-85
2022/01/13 05:35:22;;;;;;;85.50;32.28;;;2.40;99.90;;;;;;4926319;28;20054;-85
2022/01/13 05:37:48;;;;;;;53.50;21.83;;;2.40;99.90;;;;;;4931283;28;20035;-85
2022/01/13 05:40:14;;;;;;;45.08;20.02;;;2.30;99.90;;;;;;4960888;28;20033;-84
2022/01/13 05:42:40;;;;;;;69.13;27.45;;;2.40;99.90;;;;;;4939385;28;20034;-85
2022/01/13 05:45:16;;;;;;;48.72;19.65;;;2.40;99.90;;;;;;4945449;28;20039;-85
2022/01/13 05:47:43;;;;;;;72.13;28.08;;;2.40;99.90;;;;;;4930831;28;20085;-85
2022/01/13 05:50:14;;;;;;;70.72;26.92;;;2.40;99.90;;;;;;4931847;28;20106;-86
2022/01/13 05:52:40;;;;;;;85.82;30.88;;;2.40;99.90;;;;;;4916171;28;20071;-85
2022/01/13 05:55:06;;;;;;;68.18;26.90;;;2.40;99.90;;;;;;4929088;28;20693;-85
2022/01/13 05:57:31;;;;;;;52.90;19.55;;;2.40;99.90;;;;;;4912234;28;20034;-84
2022/01/13 05:59:57;;;;;;;70.40;27.23;;;2.50;99.90;;;;;;4942185;28;20486;-84
2022/01/13 06:02:22;;;;;;;68.13;27.27;;;2.40;99.90;;;;;;4926542;28;20113;-84
2022/01/13 06:04:48;;;;;;;77.47;30.88;;;2.50;99.90;;;;;;4916610;28;20031;-85
2022/01/13 06:07:14;;;;;;;77.22;29.35;;;2.40;99.90;;;;;;4944073;28;20038;-85
2022/01/13 06:09:39;;;;;;;81.18;30.08;;;2.40;99.90;;;;;;4939056;28;20053;-84
2022/01/13 06:12:08;;;;;;;81.28;32.17;;;2.40;99.90;;;;;;4947739;28;20046;-85
2022/01/13 06:14:36;;;;;;;88.65;35.10;;;2.50;99.90;;;;;;4918039;28;20570;-85
2022/01/13 06:17:01;;;;;;;88.10;34.17;;;2.40;99.90;;;;;;4935807;28;20027;-85
2022/01/13 06:19:29;;;;;;;79.60;29.50;;;2.40;99.90;;;;;;4914988;28;20043;-85
2022/01/13 06:21:57;;;;;;;77.47;28.67;;;2.40;99.90;;;;;;4906274;28;20788;-85
2022/01/13 06:24:23;;;;;;;47.70;20.10;;;2.40;99.90;;;;;;4916264;28;20049;-85
2022/01/13 06:26:56;;;;;;;74.20;29.10;;;2.30;99.90;;;;;;4902569;28;20588;-85
2022/01/13 06:29:24;;;;;;;67.15;27.13;;;2.40;99.90;;;;;;4901068;29;20158;-84
2022/01/13 06:32:06;;;;;;;;;;;;;;;;;;;;;
2022/01/13 06:37:55;;;;;;;66.43;22.58;;;2.30;99.90;;;;;;4947915;28;20102;-84
2022/01/13 06:40:20;;;;;;;35.13;13.45;;;2.30;99.90;;;;;;4930004;29;20575;-85
2022/01/13 06:42:46;;;;;;;67.45;27.45;;;2.30;99.90;;;;;;4918063;28;20085;-85
2022/01/13 06:45:12;;;;;;;42.50;15.80;;;2.30;99.90;;;;;;4969132;28;20062;-85
2022/01/13 06:47:38;;;;;;;51.88;22.25;;;2.30;99.90;;;;;;4920678;28;20039;-84
2022/01/13 06:50:04;;;;;;;44.72;15.18;;;2.30;99.90;;;;;;4942615;28;20446;-85
2022/01/13 06:52:30;;;;;;;51.10;18.63;;;2.20;99.90;;;;;;4930627;28;20129;-84
2022/01/13 06:54:56;;;;;;;67.20;23.77;;;2.30;99.90;;;;;;4933809;28;20130;-85
2022/01/13 06:57:21;;;;;;;35.90;14.70;;;2.30;99.90;;;;;;4910130;28;20070;-85
2022/01/13 06:59:52;;;;;;;69.03;26.33;;;2.30;99.90;;;;;;4878796;28;20041;-86
2022/01/13 07:02:28;;;;;;;;;;;;;;;;;;;;;
2022/01/13 07:05:02;;;;;;;;;;;2.30;99.90;;;;;;4912755;28;20407;-86
2022/01/13 07:10:32;;;;;;;68.22;26.77;;;2.20;99.90;;;;;;4899231;28;20574;-87
2022/01/13 07:13:03;;;;;;;71.30;27.23;;;2.20;99.90;;;;;;4879892;29;20074;-88
2022/01/13 07:15:36;;;;;;;80.45;26.15;;;2.20;99.90;;;;;;4923302;28;20036;-87
2022/01/13 07:18:04;;;;;;;60.90;22.48;;;2.30;99.90;;;;;;4922540;28;20032;-87
2022/01/13 07:20:40;;;;;;;71.07;26.15;;;2.20;99.90;;;;;;4921374;28;20039;-87
2022/01/13 07:23:06;;;;;;;70.65;29.20;;;2.10;99.90;;;;;;4883884;29;20417;-86
2022/01/13 07:26:02;;;;;;;;;;;;;;;;;;;;;
2022/01/13 07:28:44;;;;;;;;;;;;;;;;;;;;;
2022/01/13 07:31:14;;;;;;;60.30;19.98;;;2.10;99.90;;;;;;4913726;28;20271;-86
2022/01/13 07:33:40;;;;;;;69.53;25.70;;;2.30;99.90;;;;;;4879367;28;20039;-86
2022/01/13 07:36:14;;;;;;;31.58;11.45;;;2.20;99.90;;;;;;4900559;28;20035;-85
2022/01/13 07:38:39;;;;;;;71.88;26.27;;;2.20;99.90;;;;;;4908635;29;20460;-86
2022/01/13 07:41:05;;;;;;;86.00;31.13;;;2.20;99.90;;;;;;4934832;28;20031;-85
2022/01/13 07:43:41;;;;;;;67.43;23.33;;;2.20;99.90;;;;;;4912957;28;20030;-85
2022/01/13 07:46:06;;;;;;;60.80;21.67;;;2.20;99.90;;;;;;4930176;28;20047;-85
2022/01/13 07:48:32;;;;;;;63.33;23.63;;;2.30;99.90;;;;;;4914229;28;20962;-86
2022/01/13 07:50:57;;;;;;;69.95;24.90;;;2.20;99.90;;;;;;4908642;28;20046;-85
2022/01/13 07:53:25;;;;;;;80.07;29.58;;;2.30;99.90;;;;;;4906212;29;20074;-85
2022/01/13 07:55:51;;;;;;;56.72;18.75;;;2.20;99.90;;;;;;4907534;28;20423;-85
2022/01/13 07:58:16;;;;;;;34.58;14.05;;;2.30;99.90;;;;;;4929879;28;20031;-85
2022/01/13 08:00:42;;;;;;;62.00;22.23;;;2.30;99.90;;;;;;4956717;28;20130;-85
2022/01/13 08:03:08;;;;;;;67.80;26.02;;;2.20;99.90;;;;;;4946619;28;20035;-85
2022/01/13 08:05:33;;;;;;;54.65;19.50;;;2.20;99.90;;;;;;4932846;28;20024;-85
2022/01/13 08:07:59;;;;;;;66.60;24.63;;;2.20;99.90;;;;;;4923991;28;20495;-85
2022/01/13 08:10:27;;;;;;;82.35;27.83;;;2.30;99.90;;;;;;4893867;28;20047;-84
2022/01/13 08:12:55;;;;;;;64.88;23.98;;;2.20;99.90;;;;;;4955943;28;20042;-85
2022/01/13 08:15:35;;;;;;;40.42;14.57;;;2.30;99.90;;;;;;4922187;28;20081;-85
2022/01/13 08:20:50;;;;;;;40.42;14.15;;;2.30;99.90;;;;;;4953964;28;20090;-85
2022/01/13 08:23:16;;;;;;;71.18;26.90;;;2.30;99.90;;;;;;4932679;28;20047;-85
2022/01/13 08:25:42;;;;;;;83.97;32.30;;;2.20;99.90;;;;;;4927165;28;20112;-85
2022/01/13 08:28:13;;;;;;;78.10;27.35;;;2.30;99.90;;;;;;4913363;29;20249;-84
2022/01/13 08:30:44;;;;;;;67.07;25.95;;;2.20;99.90;;;;;;4922003;28;20047;-85
2022/01/13 08:33:13;;;;;;;68.07;23.50;;;2.30;99.90;;;;;;4913592;28;20026;-84
2022/01/13 08:35:43;;;;;;;71.82;27.25;;;2.30;99.90;;;;;;4903287;29;20033;-85
2022/01/13 08:38:16;;;;;;;55.75;19.25;;;2.40;99.90;;;;;;4916049;28;20031;-85
2022/01/13 08:40:45;;;;;;;56.55;21.95;;;2.30;99.90;;;;;;4913242;28;20023;-85
2022/01/13 08:43:15;;;;;;;47.83;17.17;;;2.40;99.90;;;;;;4934511;28;20027;-85
2022/01/13 08:45:41;;;;;;;62.08;21.83;;;2.30;99.90;;;;;;4903010;28;20034;-85
2022/01/13 08:48:13;;;;;;;70.63;25.73;;;2.40;99.90;;;;;;4921766;28;20097;-85
2022/01/13 08:50:39;;;;;;;80.00;32.00;;;2.30;99.90;;;;;;4927911;28;20075;-86
2022/01/13 08:53:07;;;;;;;86.30;29.98;;;2.40;99.90;;;;;;4921522;28;20039;-85
2022/01/13 08:55:45;;;;;;;71.63;24.50;;;2.50;99.90;;;;;;4937662;28;20446;-85
2022/01/13 08:58:28;;;;;;;79.95;30.02;;;2.40;99.90;;;;;;4928507;28;20027;-85
2022/01/13 09:00:56;;;;;;;43.72;13.63;;;2.50;99.90;;;;;;4928235;28;20038;-85
2022/01/13 09:03:21;;;;;;;79.40;30.70;;;2.50;99.90;;;;;;4961474;28;20059;-86
2022/01/13 09:05:47;;;;;;;65.43;25.63;;;2.60;99.90;;;;;;4960651;28;20066;-85
2022/01/13 09:08:12;;;;;;;72.15;27.05;;;2.60;99.90;;;;;;4924317;28;20031;-86
2022/01/13 09:10:39;;;;;;;83.65;28.63;;;2.60;99.90;;;;;;4910600;28;20037;-85
2022/01/13 09:13:06;;;;;;;94.93;38.70;;;2.80;99.90;;;;;;4939689;28;20035;-85
2022/01/13 09:15:37;;;;;;;65.47;28.02;;;2.80;99.90;;;;;;4935245;28;20023;-85
2022/01/13 09:18:09;;;;;;;84.55;30.58;;;2.80;99.90;;;;;;4931909;28;20113;-85
2022/01/13 09:20:41;;;;;;;82.65;31.45;;;2.80;99.90;;;;;;4933884;28;20045;-85
2022/01/13 09:23:07;;;;;;;50.55;18.48;;;2.90;99.90;;;;;;4930685;28;20059;-85
2022/01/13 09:25:33;;;;;;;84.45;29.92;;;2.90;99.90;;;;;;4905961;28;20539;-85
2022/01/13 09:27:59;;;;;;;54.80;20.90;;;3.00;99.90;;;;;;4934966;28;20110;-86
2022/01/13 09:30:26;;;;;;;73.03;27.50;;;3.00;99.90;;;;;;4912786;28;20027;-86
2022/01/13 09:32:51;;;;;;;75.43;27.80;;;3.10;99.90;;;;;;4944126;28;20031;-86
2022/01/13 09:35:17;;;;;;;28.55;13.55;;;3.10;99.90;;;;;;4922454;28;20049;-85
2022/01/13 09:37:42;;;;;;;83.57;32.30;;;3.30;99.90;;;;;;4935570;28;20054;-85
2022/01/13 09:40:09;;;;;;;50.97;18.13;;;3.20;99.90;;;;;;4932752;28;20031;-85
2022/01/13 09:42:38;;;;;;;51.80;17.52;;;3.30;99.90;;;;;;4959408;28;20043;-84
2022/01/13 09:45:05;;;;;;;77.53;30.27;;;3.30;99.90;;;;;;4920215;28;20031;-85
2022/01/13 09:47:31;;;;;;;80.65;31.45;;;3.40;99.90;;;;;;4918931;28;20073;-85
2022/01/13 09:49:57;;;;;;;73.20;24.98;;;3.40;99.90;;;;;;4931740;28;20063;-85
2022/01/13 09:52:25;;;;;;;79.53;32.58;;;3.50;99.90;;;;;;4925252;28;20832;-85
2022/01/13 09:54:52;;;;;;;88.80;35.75;;;3.60;99.90;;;;;;4918596;28;20033;-85
2022/01/13 09:57:18;;;;;;;75.03;27.58;;;3.60;99.90;;;;;;4931865;28;20035;-85
2022/01/13 09:59:43;;;;;;;84.55;33.55;;;3.70;99.90;;;;;;4923081;28;20692;-86
2022/01/13 10:02:11;;;;;;;78.75;29.33;;;3.70;99.90;;;;;;4929092;28;20027;-86
2022/01/13 10:04:57;;;;;;;96.38;36.88;;;3.70;99.90;;;;;;4914119;28;20461;-85
2022/01/13 10:07:50;;;;;;;81.20;29.25;;;3.60;99.90;;;;;;4896839;28;20567;-85
2022/01/13 10:10:17;;;;;;;60.50;21.92;;;3.70;99.90;;;;;;4927458;28;20776;-85
2022/01/13 10:12:44;;;;;;;84.28;34.50;;;3.70;99.90;;;;;;4884740;29;20400;-85
2022/01/13 10:18:09;;;;;;;87.88;36.78;;;3.80;99.90;;;;;;4926864;28;20051;-85
2022/01/13 10:20:34;;;;;;;70.10;27.25;;;4.00;99.90;;;;;;4919713;28;20502;-85
2022/01/13 10:23:10;;;;;;;70.30;27.83;;;4.00;99.90;;;;;;4920011;28;20126;-85
2022/01/13 10:25:48;;;;;;;63.72;26.67;;;4.00;99.90;;;;;;4891456;28;20066;-87
2022/01/13 10:28:23;;;;;;;76.28;30.65;;;4.00;99.90;;;;;;4883627;28;20162;-86
2022/01/13 10:30:56;;;;;;;81.07;29.83;;;4.10;99.90;;;;;;4886741;28;20036;-85
2022/01/13 10:33:43;;;;;;;;;;;;;;;;;;;;;
2022/01/13 10:36:40;;;;;;;67.13;21.80;;;4.40;99.90;;;;;;4905838;28;20038;-85
2022/01/13 10:39:08;;;;;;;79.97;30.85;;;4.50;99.90;;;;;;4892924;28;20035;-86
2022/01/13 10:42:11;;;;;;;85.07;34.90;;;4.60;99.90;;;;;;4883470;28;20062;-86
2022/01/13 10:44:27;;;;;;;80.47;33.72;;;4.70;99.90;;;;;;4911161;28;20031;-86
2022/01/13 10:47:03;;;;;;;70.28;30.08;;;4.80;99.90;;;;;;4911661;28;20627;-86
2022/01/13 10:52:39;;;;;;;55.17;22.40;;;4.80;99.90;;;;;;4936190;28;20289;-86
2022/01/13 10:55:06;;;;;;;73.45;29.80;;;4.90;99.90;;;;;;4928317;28;20494;-86
2022/01/13 10:57:33;;;;;;;43.67;17.05;;;4.90;99.90;;;;;;4918204;28;20431;-86
2022/01/13 10:59:59;;;;;;;71.68;28.10;;;5.00;99.90;;;;;;4880130;28;20381;-86
2022/01/13 11:02:25;;;;;;;67.60;27.75;;;5.10;99.90;;;;;;4893405;28;20032;-86
2022/01/13 11:05:08;;;;;;;71.07;30.88;;;5.20;99.90;;;;;;4904389;28;20122;-86
2022/01/13 11:07:35;;;;;;;66.28;28.70;;;5.30;99.90;;;;;;4919862;28;20038;-86
2022/01/13 11:10:25;;;;;;;49.03;21.48;;;5.30;99.90;;;;;;4904874;28;20039;-86
2022/01/13 11:13:02;;;;;;;37.67;14.40;;;5.40;99.90;;;;;;4937294;28;20041;-86
2022/01/13 11:15:30;;;;;;;54.72;20.10;;;5.40;99.90;;;;;;4921356;28;20079;-87
2022/01/13 11:17:57;;;;;;;66.47;30.10;;;5.50;99.90;;;;;;4928138;28;20133;-86
2022/01/13 11:20:28;;;;;;;47.83;20.70;;;5.60;99.90;;;;;;4922887;28;20046;-86
2022/01/13 11:22:58;;;;;;;53.78;20.95;;;5.70;99.90;;;;;;4922839;29;20066;-86
2022/01/13 11:25:26;;;;;;;45.40;15.32;;;5.60;99.90;;;;;;4928694;28;20114;-86
2022/01/13 11:28:02;;;;;;;38.92;16.30;;;5.60;99.90;;;;;;4899648;28;20075;-86
2022/01/13 11:30:28;;;;;;;60.10;28.33;;;5.70;99.90;;;;;;4920842;28;20042;-86
2022/01/13 11:32:55;;;;;;;63.50;28.20;;;5.80;99.90;;;;;;4918518;28;20408;-86
2022/01/13 11:35:28;;;;;;;63.95;30.02;;;5.80;99.90;;;;;;4913919;29;20046;-86
2022/01/13 11:37:56;;;;;;;69.47;29.70;;;6.00;99.90;;;;;;4925477;28;20471;-87
2022/01/13 11:40:30;;;;;;;56.85;26.10;;;6.00;99.90;;;;;;4944781;28;20035;-87
2022/01/13 11:42:59;;;;;;;49.40;22.35;;;5.60;99.90;;;;;;4962675;28;20402;-87
2022/01/13 11:45:27;;;;;;;58.28;26.88;;;6.00;99.90;;;;;;4936157;28;20047;-87
2022/01/13 11:48:18;;;;;;;49.55;22.15;;;5.80;99.90;;;;;;4902945;28;20031;-87
2022/01/13 11:50:55;;;;;;;56.15;24.85;;;5.80;99.90;;;;;;4901599;29;20084;-87
2022/01/13 11:53:54;;;;;;;42.72;19.08;;;6.20;99.90;;;;;;4896747;28;20033;-87
2022/01/13 11:56:19;;;;;;;44.80;18.80;;;6.50;99.90;;;;;;4874872;28;20089;-87
2022/01/13 11:58:46;;;;;;;51.20;21.13;;;6.60;99.90;;;;;;4908638;28;20392;-87
2022/01/13 12:01:39;;;;;;;36.53;15.40;;;6.90;99.90;;;;;;4897168;28;20035;-87
2022/01/13 12:04:14;;;;;;;45.38;17.08;;;7.10;99.90;;;;;;4898046;28;20114;-87
2022/01/13 12:06:43;;;;;;;34.95;13.75;;;7.00;99.90;;;;;;4878001;29;20420;-87
2022/01/13 12:09:29;;;;;;;30.58;13.88;;;7.00;99.90;;;;;;4919522;28;20026;-87
2022/01/13 12:12:03;;;;;;;54.08;24.45;;;7.00;99.90;;;;;;4904817;29;20036;-87
2022/01/13 12:14:45;;;;;;;50.03;23.27;;;6.80;99.90;;;;;;4918147;28;20035;-87
2022/01/13 12:17:26;;;;;;;21.90;8.70;;;6.90;99.90;;;;;;4898189;28;20480;-86
2022/01/13 12:19:59;;;;;;;46.92;22.95;;;7.30;99.90;;;;;;4930200;28;20042;-87
2022/01/13 12:22:43;;;;;;;36.78;15.35;;;7.40;99.90;;;;;;4935941;28;20039;-87
2022/01/13 12:25:13;;;;;;;48.17;19.50;;;7.50;99.90;;;;;;4949374;28;20065;-87
2022/01/13 12:27:38;;;;;;;41.88;21.20;;;7.70;99.90;;;;;;4932489;28;20039;-87
2022/01/13 12:30:17;;;;;;;46.53;19.13;;;7.60;99.90;;;;;;4960834;28;20033;-87
2022/01/13 12:32:55;;;;;;;44.60;20.25;;;7.70;99.90;;;;;;4936245;28;20504;-87
2022/01/13 12:35:34;;;;;;;46.88;21.02;;;7.50;99.90;;;;;;4946479;28;20091;-87
2022/01/13 12:38:00;;;;;;;47.42;20.33;;;7.20;99.90;;;;;;4948431;28;20444;-87
2022/01/13 12:40:26;;;;;;;36.83;16.48;;;7.70;99.90;;;;;;4909218;28;20105;-87
2022/01/13 12:42:53;;;;;;;33.83;12.70;;;7.60;99.90;;;;;;4916752;28;20039;-87
2022/01/13 12:45:33;;;;;;;48.92;21.25;;;7.40;99.90;;;;;;4945912;28;20615;-87
2022/01/13 12:48:06;;;;;;;50.03;22.42;;;7.50;99.90;;;;;;4926801;28;20039;-87
2022/01/13 12:50:43;;;;;;;19.35;8.52;;;7.60;99.90;;;;;;4931861;28;20038;-87
2022/01/13 12:53:15;;;;;;;42.65;19.77;;;7.60;99.90;;;;;;4928267;28;20077;-87
2022/01/13 12:56:15;;;;;;;49.97;21.38;;;8.00;99.90;;;;;;4942629;28;20034;-87
2022/01/13 12:58:47;;;;;;;22.55;8.50;;;7.80;99.90;;;;;;4910893;28;20035;-87
2022/01/13 13:01:23;;;;;;;43.13;18.50;;;8.00;99.90;;;;;;4926309;28;20035;-87
2022/01/13 13:04:08;;;;;;;40.60;17.93;;;8.10;99.90;;;;;;4943284;28;20115;-87
2022/01/13 13:06:34;;;;;;;42.03;19.10;;;8.30;99.90;;;;;;4925696;28;20283;-87
2022/01/13 13:09:19;;;;;;;27.52;11.60;;;8.60;99.90;;;;;;4933405;28;20554;-87
2022/01/13 13:11:46;;;;;;;44.50;19.95;;;8.20;99.90;;;;;;4925925;28;20042;-87
2022/01/13 13:14:18;;;;;;;46.08;18.73;;;8.10;99.90;;;;;;4927601;28;20063;-87
2022/01/13 13:16:44;;;;;;;44.53;19.48;;;8.40;99.90;;;;;;4944457;28;20066;-87
2022/01/13 13:19:10;;;;;;;47.47;19.50;;;8.70;99.90;;;;;;4928972;28;20576;-86
2022/01/13 13:21:38;;;;;;;43.53;17.60;;;8.90;99.90;;;;;;4939669;28;20055;-87